createdAt,value
2019-01-08T00:01:43.546Z,5.90
2019-01-08T00:04:10.951Z,7.00
2019-01-08T00:06:38.379Z,6.40
2019-01-08T00:09:05.851Z,7.97
2019-01-08T00:11:33.288Z,8.23
2019-01-08T00:14:00.704Z,8.60
2019-01-08T00:16:28.112Z,7.85
2019-01-08T00:18:55.536Z,8.45
2019-01-08T00:21:22.951Z,9.40
2019-01-08T00:23:50.389Z,8.55
2019-01-08T00:26:17.806Z,7.58
2019-01-08T00:28:45.214Z,8.40
2019-01-08T00:31:12.663Z,7.45
2019-01-08T00:33:40.074Z,7.05
2019-01-08T00:36:07.483Z,7.75
2019-01-08T00:38:34.906Z,6.72
2019-01-08T00:41:02.348Z,6.20
2019-01-08T00:43:29.747Z,6.25
2019-01-08T00:45:57.158Z,6.00
2019-01-08T00:48:24.692Z,6.10
2019-01-08T00:50:52.103Z,5.67
2019-01-08T00:53:19.500Z,5.47
2019-01-08T00:55:46.970Z,5.20
2019-01-08T00:58:14.376Z,4.30
2019-01-08T01:00:41.782Z,5.03
2019-01-08T01:03:09.193Z,4.65
2019-01-08T01:05:36.594Z,5.97
2019-01-08T01:08:04.077Z,4.28
2019-01-08T01:10:31.525Z,4.70
2019-01-08T01:12:58.943Z,5.78
2019-01-08T01:15:26.341Z,4.08
2019-01-08T01:17:53.764Z,4.08
2019-01-08T01:20:21.170Z,5.10
2019-01-08T01:22:48.580Z,4.70
2019-01-08T01:25:16.010Z,4.15
2019-01-08T01:27:43.421Z,4.50
2019-01-08T01:30:10.858Z,4.35
2019-01-08T01:32:38.274Z,4.20
2019-01-08T01:35:05.749Z,4.95
2019-01-08T01:37:33.759Z,3.98
2019-01-08T01:40:01.159Z,4.08
2019-01-08T01:42:28.589Z,4.55
2019-01-08T01:44:55.998Z,4.60
2019-01-08T01:47:23.442Z,5.92
2019-01-08T01:49:50.833Z,5.15
2019-01-08T01:52:18.235Z,4.58
2019-01-08T01:54:45.661Z,5.42
2019-01-08T01:57:13.064Z,5.85
2019-01-08T01:59:40.492Z,5.05
2019-01-08T02:02:07.894Z,4.70
2019-01-08T02:04:35.351Z,4.40
2019-01-08T02:07:02.759Z,4.50
2019-01-08T02:09:30.164Z,4.75
2019-01-08T02:11:57.586Z,4.35
2019-01-08T02:14:25.026Z,5.22
2019-01-08T02:16:52.446Z,4.70
2019-01-08T02:19:19.857Z,5.40
2019-01-08T02:21:47.281Z,6.22
2019-01-08T02:24:14.686Z,5.67
2019-01-08T02:26:42.142Z,4.35
2019-01-08T02:29:16.546Z,4.12
2019-01-08T02:31:38.599Z,4.65
2019-01-08T02:34:06.034Z,4.35
2019-01-08T02:36:33.447Z,3.77
2019-01-08T02:39:00.878Z,4.20
2019-01-08T02:41:28.439Z,5.15
2019-01-08T02:43:55.981Z,5.40
2019-01-08T02:46:23.408Z,4.90
2019-01-08T02:48:50.850Z,4.50
2019-01-08T02:51:18.443Z,5.10
2019-01-08T02:53:45.870Z,5.33
2019-01-08T02:56:13.275Z,4.72
2019-01-08T02:58:40.702Z,5.05
2019-01-08T03:01:09.382Z,4.65
2019-01-08T03:03:36.766Z,4.72
2019-01-08T03:06:04.185Z,5.00
2019-01-08T03:08:31.611Z,4.70
2019-01-08T03:10:59.042Z,5.03
2019-01-08T03:13:26.453Z,6.37
2019-01-08T03:15:53.879Z,5.60
2019-01-08T03:18:21.281Z,4.90
2019-01-08T03:20:48.715Z,5.10
2019-01-08T03:23:16.114Z,6.10
2019-01-08T03:25:43.536Z,5.58
2019-01-08T03:28:10.946Z,5.03
2019-01-08T03:30:38.379Z,5.17
2019-01-08T03:33:05.774Z,5.15
2019-01-08T03:35:33.217Z,4.80
2019-01-08T03:38:00.648Z,5.17
2019-01-08T03:40:28.042Z,7.83
2019-01-08T03:42:55.472Z,4.70
2019-01-08T03:45:22.880Z,6.15
2019-01-08T03:47:50.294Z,5.20
2019-01-08T03:50:17.725Z,5.35
2019-01-08T03:52:45.126Z,5.45
2019-01-08T03:55:12.548Z,5.17
2019-01-08T03:57:39.986Z,6.47
2019-01-08T04:00:08.924Z,5.92
2019-01-08T04:02:36.334Z,5.70
2019-01-08T04:05:04.342Z,4.87
2019-01-08T04:07:31.766Z,5.10
2019-01-08T04:09:59.206Z,4.72
2019-01-08T04:12:26.626Z,5.17
2019-01-08T04:14:54.013Z,5.90
2019-01-08T04:17:21.451Z,5.67
2019-01-08T04:19:48.863Z,4.40
2019-01-08T04:22:16.305Z,3.50
2019-01-08T04:24:43.707Z,3.80
2019-01-08T04:27:11.113Z,3.58
2019-01-08T04:29:38.533Z,3.08
2019-01-08T04:32:05.991Z,3.12
2019-01-08T04:34:33.389Z,3.22
2019-01-08T04:37:00.798Z,3.62
2019-01-08T04:39:28.232Z,4.25
2019-01-08T04:41:55.631Z,4.05
2019-01-08T04:44:23.070Z,2.87
2019-01-08T04:46:50.474Z,3.10
2019-01-08T04:49:17.881Z,3.47
2019-01-08T04:51:45.570Z,3.12
2019-01-08T04:54:13.048Z,3.52
2019-01-08T04:56:40.486Z,3.60
2019-01-08T04:59:07.899Z,3.42
2019-01-08T05:01:35.350Z,3.22
2019-01-08T05:04:02.762Z,4.30
2019-01-08T05:06:30.155Z,4.10
2019-01-08T05:08:57.606Z,4.58
2019-01-08T05:11:25.006Z,4.33
2019-01-08T05:13:52.412Z,6.70
2019-01-08T05:16:19.853Z,4.35
2019-01-08T05:18:47.251Z,4.20
2019-01-08T05:21:14.666Z,5.90
2019-01-08T05:23:42.095Z,4.30
2019-01-08T05:26:09.509Z,5.28
2019-01-08T05:28:36.954Z,5.30
2019-01-08T05:31:04.367Z,4.55
2019-01-08T05:33:31.761Z,5.37
2019-01-08T05:35:59.271Z,5.55
2019-01-08T05:38:26.621Z,4.90
2019-01-08T05:40:54.487Z,5.00
2019-01-08T05:43:21.914Z,4.92
2019-01-08T05:45:49.371Z,4.62
2019-01-08T05:48:16.794Z,4.70
2019-01-08T05:50:44.210Z,5.37
2019-01-08T05:53:11.644Z,4.75
2019-01-08T05:55:39.101Z,4.20
2019-01-08T05:58:06.531Z,5.42
2019-01-08T06:00:33.926Z,5.53
2019-01-08T06:03:01.371Z,3.50
2019-01-08T06:05:28.773Z,3.50
2019-01-08T06:07:56.212Z,4.92
2019-01-08T06:10:23.623Z,4.85
2019-01-08T06:12:51.026Z,5.00
2019-01-08T06:15:18.491Z,3.47
2019-01-08T06:17:45.891Z,5.50
2019-01-08T06:20:13.304Z,3.90
2019-01-08T06:22:40.747Z,4.05
2019-01-08T06:25:08.179Z,4.87
2019-01-08T06:27:35.587Z,5.12
2019-01-08T06:30:03.063Z,7.00
2019-01-08T06:32:30.503Z,4.70
2019-01-08T06:34:57.934Z,6.30
2019-01-08T06:37:25.342Z,7.22
2019-01-08T06:39:52.802Z,4.65
2019-01-08T06:42:20.208Z,4.10
2019-01-08T06:44:47.618Z,6.50
2019-01-08T06:47:15.041Z,5.05
2019-01-08T06:49:42.456Z,4.67
2019-01-08T06:52:09.898Z,5.30
2019-01-08T06:54:37.362Z,7.15
2019-01-08T06:57:04.769Z,8.03
2019-01-08T06:59:32.169Z,5.83
2019-01-08T07:01:59.598Z,5.30
2019-01-08T07:04:27.022Z,5.90
2019-01-08T07:06:54.721Z,6.12
2019-01-08T07:09:22.130Z,6.00
2019-01-08T07:11:49.586Z,5.20
2019-01-08T07:14:16.986Z,4.55
2019-01-08T07:16:44.401Z,4.92
2019-01-08T07:19:11.826Z,5.45
2019-01-08T07:21:39.238Z,4.37
2019-01-08T07:24:06.674Z,4.47
2019-01-08T07:26:34.074Z,4.72
2019-01-08T07:29:01.520Z,4.87
2019-01-08T07:31:28.925Z,4.65
2019-01-08T07:33:56.335Z,5.22
2019-01-08T07:36:23.834Z,5.83
2019-01-08T07:38:51.247Z,5.40
2019-01-08T07:41:18.665Z,4.58
2019-01-08T07:43:46.095Z,5.20
2019-01-08T07:46:13.593Z,5.10
2019-01-08T07:48:41.013Z,4.95
2019-01-08T07:51:08.434Z,4.40
2019-01-08T07:53:35.850Z,3.90
2019-01-08T07:56:03.272Z,4.92
2019-01-08T07:58:30.690Z,4.35
2019-01-08T08:00:58.099Z,3.77
2019-01-08T08:03:25.535Z,3.67
2019-01-08T08:05:52.942Z,3.45
2019-01-08T08:08:20.374Z,4.35
2019-01-08T08:10:47.935Z,3.90
2019-01-08T08:13:15.331Z,3.55
2019-01-08T08:15:42.745Z,5.00
2019-01-08T08:18:10.219Z,3.98
2019-01-08T08:20:37.653Z,4.50
2019-01-08T08:23:05.070Z,4.65
2019-01-08T08:25:32.531Z,4.37
2019-01-08T08:27:59.948Z,6.15
2019-01-08T08:30:28.706Z,5.22
2019-01-08T08:32:56.148Z,4.20
2019-01-08T08:35:23.563Z,4.10
2019-01-08T08:37:50.978Z,4.65
2019-01-08T08:40:18.434Z,4.20
2019-01-08T08:42:45.845Z,4.17
2019-01-08T08:45:13.256Z,3.90
2019-01-08T08:47:40.717Z,5.75
2019-01-08T08:50:08.258Z,4.30
2019-01-08T08:52:35.685Z,4.83
2019-01-08T08:55:03.192Z,4.20
2019-01-08T08:57:30.650Z,4.40
2019-01-08T08:59:58.053Z,3.60
2019-01-08T09:02:25.481Z,4.70
2019-01-08T09:04:52.934Z,4.90
2019-01-08T09:07:20.344Z,5.00
2019-01-08T09:09:47.781Z,4.62
2019-01-08T09:12:15.185Z,3.80
2019-01-08T09:14:42.631Z,4.75
2019-01-08T09:17:10.041Z,4.58
2019-01-08T09:19:37.470Z,4.40
2019-01-08T09:22:04.884Z,6.67
2019-01-08T09:24:32.323Z,3.65
2019-01-08T09:26:59.821Z,3.87
2019-01-08T09:29:27.203Z,3.70
2019-01-08T09:31:54.638Z,4.17
2019-01-08T09:34:22.058Z,3.75
2019-01-08T09:36:51.041Z,5.03
2019-01-08T09:39:18.463Z,3.90
2019-01-08T09:41:45.899Z,3.58
2019-01-08T09:44:13.374Z,4.03
2019-01-08T09:46:40.828Z,3.37
2019-01-08T09:49:08.450Z,4.97
2019-01-08T09:51:35.874Z,4.03
2019-01-08T09:54:03.282Z,4.72
2019-01-08T09:56:30.713Z,3.33
2019-01-08T09:58:58.170Z,3.70
2019-01-08T10:01:25.574Z,3.27
2019-01-08T10:03:52.987Z,3.90
2019-01-08T10:06:20.511Z,3.50
2019-01-08T10:08:47.918Z,3.90
2019-01-08T10:11:15.355Z,4.05
2019-01-08T10:13:42.770Z,2.35
2019-01-08T10:16:10.213Z,3.40
2019-01-08T10:18:37.612Z,3.40
2019-01-08T10:21:05.071Z,3.90
2019-01-08T10:23:32.469Z,4.22
2019-01-08T10:25:59.890Z,4.15
2019-01-08T10:28:27.353Z,4.12
2019-01-08T10:30:54.757Z,3.27
2019-01-08T10:33:22.161Z,3.50
2019-01-08T10:35:49.618Z,2.40
2019-01-08T10:38:17.023Z,2.10
2019-01-08T10:40:44.473Z,2.52
2019-01-08T10:43:11.886Z,2.00
2019-01-08T10:45:39.283Z,2.60
2019-01-08T10:48:06.735Z,2.20
2019-01-08T10:50:34.154Z,2.90
2019-01-08T10:53:08.887Z,3.08
2019-01-08T10:55:55.422Z,2.95
2019-01-08T10:58:23.115Z,2.45
2019-01-08T11:00:52.783Z,2.80
2019-01-08T11:03:23.248Z,3.10
2019-01-08T11:05:51.473Z,5.12
2019-01-08T11:08:19.624Z,3.52
2019-01-08T11:10:47.497Z,4.90
2019-01-08T11:13:17.084Z,8.38
2019-01-08T11:18:54.023Z,5.30
2019-01-08T11:21:22.227Z,5.33
2019-01-08T11:23:50.503Z,5.70
2019-01-08T11:26:17.985Z,5.40
2019-01-08T11:28:46.087Z,5.33
2019-01-08T11:31:14.763Z,5.65
2019-01-08T11:33:42.862Z,5.30
2019-01-08T11:36:10.835Z,5.40
2019-01-08T11:38:39.258Z,6.05
2019-01-08T11:41:08.867Z,7.70
2019-01-08T11:43:37.078Z,6.45
2019-01-08T11:46:04.579Z,5.05
2019-01-08T11:48:33.694Z,4.78
2019-01-08T11:51:02.745Z,3.60
2019-01-08T11:53:31.475Z,3.52
2019-01-08T11:56:00.148Z,5.08
2019-01-08T11:58:27.636Z,7.03
2019-01-08T12:00:55.162Z,5.08
2019-01-08T12:03:22.615Z,5.85
2019-01-08T12:05:50.899Z,5.85
2019-01-08T12:08:18.844Z,6.17
2019-01-08T12:10:47.176Z,5.75
2019-01-08T12:13:16.091Z,5.45
2019-01-08T12:15:44.179Z,6.03
2019-01-08T12:18:11.590Z,4.97
2019-01-08T12:20:39.813Z,5.25
2019-01-08T12:23:07.942Z,7.33
2019-01-08T12:25:36.612Z,5.35
2019-01-08T12:28:04.235Z,5.78
2019-01-08T12:30:32.627Z,4.70
2019-01-08T12:33:00.038Z,7.10
2019-01-08T12:35:27.586Z,5.55
2019-01-08T12:37:55.771Z,5.33
2019-01-08T12:40:23.350Z,9.75
2019-01-08T12:42:51.166Z,6.97
2019-01-08T12:45:19.687Z,5.67
2019-01-08T12:47:48.308Z,6.25
2019-01-08T12:50:16.163Z,5.90
2019-01-08T12:52:44.501Z,6.45
2019-01-08T12:55:13.111Z,6.22
2019-01-08T12:57:41.254Z,5.50
2019-01-08T13:00:12.111Z,5.30
2019-01-08T13:02:40.325Z,5.70
2019-01-08T13:05:08.107Z,5.70
2019-01-08T13:07:36.634Z,5.10
2019-01-08T13:10:05.402Z,4.58
2019-01-08T13:12:35.433Z,5.47
2019-01-08T13:15:05.073Z,6.55
2019-01-08T13:17:35.084Z,5.55
2019-01-08T13:20:03.584Z,5.72
2019-01-08T13:22:31.424Z,4.78
2019-01-08T13:24:59.716Z,5.70
2019-01-08T13:27:28.121Z,5.40
2019-01-08T13:29:58.961Z,5.85
2019-01-08T13:32:26.082Z,5.80
2019-01-08T13:34:53.491Z,5.45
2019-01-08T13:37:20.931Z,5.00
2019-01-08T13:39:48.389Z,5.80
2019-01-08T13:42:15.824Z,5.95
2019-01-08T13:44:43.262Z,6.10
2019-01-08T13:47:12.575Z,4.83
2019-01-08T13:49:39.943Z,5.53
2019-01-08T13:52:07.359Z,6.15
2019-01-08T13:54:34.802Z,5.92
2019-01-08T13:57:02.202Z,5.53
2019-01-08T13:59:29.613Z,6.00
2019-01-08T14:01:57.115Z,5.30
2019-01-08T14:04:24.577Z,6.53
2019-01-08T14:06:51.987Z,6.60
2019-01-08T14:09:19.463Z,5.55
2019-01-08T14:11:46.874Z,5.47
2019-01-08T14:14:14.290Z,5.22
2019-01-08T14:16:41.743Z,5.67
2019-01-08T14:19:09.174Z,6.35
2019-01-08T14:21:36.619Z,7.85
2019-01-08T14:24:04.441Z,6.78
2019-01-08T14:26:31.891Z,6.80
2019-01-08T14:28:59.323Z,6.47
2019-01-08T14:31:26.761Z,4.60
2019-01-08T14:33:54.191Z,5.65
2019-01-08T14:36:21.796Z,6.00
2019-01-08T14:38:49.250Z,5.28
2019-01-08T14:41:16.680Z,6.92
2019-01-08T14:43:44.091Z,6.17
2019-01-08T14:46:11.555Z,5.20
2019-01-08T14:48:38.999Z,3.20
2019-01-08T14:51:06.444Z,5.40
2019-01-08T14:53:34.001Z,5.75
2019-01-08T14:56:01.458Z,4.75
2019-01-08T14:58:28.873Z,4.50
2019-01-08T15:00:56.304Z,5.60
2019-01-08T15:03:23.754Z,5.28
2019-01-08T15:05:51.239Z,4.42
2019-01-08T15:08:18.683Z,4.75
2019-01-08T15:10:46.095Z,5.62
2019-01-08T15:13:13.911Z,5.45
2019-01-08T15:15:41.678Z,4.58
2019-01-08T15:18:09.118Z,4.92
2019-01-08T15:20:38.964Z,5.35
2019-01-08T15:23:07.809Z,5.58
2019-01-08T15:25:35.244Z,5.10
2019-01-08T15:28:02.691Z,6.92
2019-01-08T15:30:30.145Z,5.45
2019-01-08T15:32:58.344Z,5.97
2019-01-08T15:35:26.172Z,5.70
2019-01-08T15:37:53.645Z,5.35
2019-01-08T15:40:23.430Z,4.60
2019-01-08T15:42:50.868Z,4.30
2019-01-08T15:45:18.359Z,3.52
2019-01-08T15:47:45.838Z,5.08
2019-01-08T15:50:13.253Z,5.78
2019-01-08T15:52:40.690Z,7.00
2019-01-08T15:55:08.144Z,4.35
2019-01-08T15:57:35.576Z,5.05
2019-01-08T16:00:02.989Z,4.47
2019-01-08T16:02:30.530Z,4.90
2019-01-08T16:04:57.935Z,4.95
2019-01-08T16:07:25.673Z,4.97
2019-01-08T16:09:53.118Z,4.65
2019-01-08T16:12:20.554Z,4.45
2019-01-08T16:14:50.897Z,5.37
2019-01-08T16:17:18.267Z,5.78
2019-01-08T16:19:45.697Z,4.72
2019-01-08T16:22:13.224Z,4.92
2019-01-08T16:24:40.932Z,4.42
2019-01-08T16:27:08.345Z,4.92
2019-01-08T16:29:35.815Z,4.55
2019-01-08T16:32:03.306Z,3.52
2019-01-08T16:34:30.720Z,4.72
2019-01-08T16:36:58.151Z,3.58
2019-01-08T16:39:25.572Z,4.03
2019-01-08T16:41:52.998Z,4.25
2019-01-08T16:44:20.444Z,4.85
2019-01-08T16:46:47.950Z,4.45
2019-01-08T16:49:15.362Z,3.90
2019-01-08T16:51:42.774Z,4.03
2019-01-08T16:54:10.233Z,4.87
2019-01-08T16:56:37.638Z,3.70
2019-01-08T16:59:05.114Z,3.40
2019-01-08T17:01:32.534Z,3.83
2019-01-08T17:03:59.944Z,3.40
2019-01-08T17:06:27.382Z,4.05
2019-01-08T17:08:54.829Z,3.95
2019-01-08T17:11:22.259Z,4.03
2019-01-08T17:13:49.682Z,5.10
2019-01-08T17:16:17.134Z,4.80
2019-01-08T17:18:44.555Z,4.45
2019-01-08T17:21:11.978Z,4.28
2019-01-08T17:23:39.426Z,4.75
2019-01-08T17:26:06.841Z,4.78
2019-01-08T17:28:34.253Z,3.70
2019-01-08T17:31:03.049Z,4.40
2019-01-08T17:33:33.980Z,4.30
2019-01-08T17:35:59.550Z,3.72
2019-01-08T17:38:28.302Z,3.42
2019-01-08T17:40:56.687Z,3.98
2019-01-08T17:43:24.158Z,4.47
2019-01-08T17:45:51.589Z,3.75
2019-01-08T17:48:21.829Z,2.85
2019-01-08T17:50:49.303Z,3.42
2019-01-08T17:53:16.999Z,3.47
2019-01-08T17:55:44.454Z,4.30
2019-01-08T17:58:32.186Z,2.60
2019-01-08T18:01:02.495Z,3.65
2019-01-08T18:03:32.068Z,3.70
2019-01-08T18:05:59.973Z,3.47
2019-01-08T18:08:40.898Z,3.37
2019-01-08T18:11:25.296Z,3.00
2019-01-08T18:13:37.342Z,2.90
2019-01-08T18:16:10.252Z,3.25
2019-01-08T18:18:40.725Z,3.20
2019-01-08T18:21:11.921Z,3.00
2019-01-08T18:23:41.765Z,2.52
2019-01-08T18:26:09.532Z,2.85
2019-01-08T18:28:39.094Z,2.87
2019-01-08T18:31:26.587Z,2.65
2019-01-08T18:33:55.260Z,2.40
2019-01-08T18:36:23.938Z,2.85
2019-01-08T18:38:52.316Z,3.62
2019-01-08T18:41:22.566Z,2.35
2019-01-08T18:43:50.577Z,2.80
2019-01-08T18:46:18.839Z,4.08
2019-01-08T18:48:46.685Z,2.80
2019-01-08T18:51:14.426Z,2.95
2019-01-08T18:53:41.894Z,3.20
2019-01-08T18:56:09.271Z,4.50
2019-01-08T18:58:36.678Z,4.50
2019-01-08T19:01:04.334Z,4.87
2019-01-08T19:03:31.698Z,3.05
2019-01-08T19:05:59.124Z,5.40
2019-01-08T19:08:29.863Z,3.80
2019-01-08T19:10:57.507Z,3.45
2019-01-08T19:13:24.951Z,3.62
2019-01-08T19:15:55.544Z,3.00
2019-01-08T19:18:22.924Z,3.47
2019-01-08T19:20:51.802Z,3.60
2019-01-08T19:23:20.994Z,2.50
2019-01-08T19:25:49.828Z,3.75
2019-01-08T19:28:17.972Z,3.58
2019-01-08T19:30:48.699Z,3.08
2019-01-08T19:33:16.788Z,4.35
2019-01-08T19:35:44.284Z,3.00
2019-01-08T19:38:11.704Z,4.17
2019-01-08T19:40:39.194Z,3.30
2019-01-08T19:43:06.602Z,3.55
2019-01-08T19:45:34.036Z,2.87
2019-01-08T19:48:01.508Z,3.33
2019-01-08T19:50:29.030Z,3.02
2019-01-08T19:52:56.441Z,2.72
2019-01-08T19:55:23.906Z,2.67
2019-01-08T19:57:51.259Z,3.62
2019-01-08T20:00:18.695Z,4.47
2019-01-08T20:02:46.221Z,2.60
2019-01-08T20:05:13.698Z,2.50
2019-01-08T20:07:41.266Z,2.67
2019-01-08T20:10:09.762Z,3.50
2019-01-08T20:12:38.121Z,2.33
2019-01-08T20:15:07.425Z,2.72
2019-01-08T20:17:34.983Z,3.62
2019-01-08T20:20:02.834Z,6.72
2019-01-08T20:22:32.301Z,2.67
2019-01-08T20:25:02.061Z,3.90
2019-01-08T20:27:29.823Z,3.85
2019-01-08T20:29:58.954Z,3.05
2019-01-08T20:32:26.357Z,3.25
2019-01-08T20:34:57.166Z,3.50
2019-01-08T20:37:27.794Z,3.83
2019-01-08T20:39:56.695Z,7.03
2019-01-08T20:42:25.208Z,4.30
2019-01-08T20:44:54.351Z,4.10
2019-01-08T20:47:23.010Z,3.58
2019-01-08T20:49:51.401Z,3.45
2019-01-08T20:52:20.051Z,3.60
2019-01-08T20:54:47.827Z,2.65
2019-01-08T20:57:17.081Z,3.02
2019-01-08T20:59:45.493Z,2.50
2019-01-08T21:02:15.909Z,2.85
2019-01-08T21:04:44.457Z,3.10
2019-01-08T21:07:12.544Z,3.85
2019-01-08T21:09:41.602Z,3.22
2019-01-08T21:12:11.520Z,3.55
2019-01-08T21:14:40.357Z,3.30
2019-01-08T21:17:09.044Z,3.40
2019-01-08T21:19:38.239Z,2.72
2019-01-08T21:22:07.282Z,3.92
2019-01-08T21:24:38.645Z,3.02
2019-01-08T21:27:06.509Z,3.30
2019-01-08T21:29:35.589Z,3.22
2019-01-08T21:32:04.418Z,4.03
2019-01-08T21:34:33.436Z,2.80
2019-01-08T21:37:01.278Z,3.85
2019-01-08T21:39:28.939Z,2.75
2019-01-08T21:41:57.243Z,3.80
2019-01-08T21:44:25.255Z,4.00
2019-01-08T21:46:53.677Z,2.45
2019-01-08T21:49:21.137Z,4.28
2019-01-08T21:51:48.519Z,3.10
2019-01-08T21:54:15.945Z,3.80
2019-01-08T21:56:43.455Z,4.10
2019-01-08T21:59:10.857Z,4.00
2019-01-08T22:01:38.287Z,4.87
2019-01-08T22:04:05.757Z,3.80
2019-01-08T22:06:34.516Z,5.90
2019-01-08T22:09:01.950Z,4.10
2019-01-08T22:11:29.371Z,3.47
2019-01-08T22:13:57.128Z,6.00
2019-01-08T22:16:24.516Z,3.25
2019-01-08T22:18:51.915Z,2.85
2019-01-08T22:21:19.353Z,3.45
2019-01-08T22:23:46.756Z,2.70
2019-01-08T22:26:14.179Z,4.70
2019-01-08T22:28:41.624Z,3.30
2019-01-08T22:31:09.106Z,5.25
2019-01-08T22:33:38.072Z,5.87
2019-01-08T22:36:05.487Z,3.37
2019-01-08T22:38:32.915Z,2.50
2019-01-08T22:41:00.610Z,3.33
2019-01-08T22:43:28.406Z,3.47
2019-01-08T22:45:56.114Z,3.67
2019-01-08T22:48:23.578Z,3.20
2019-01-08T22:50:51.347Z,3.52
2019-01-08T22:53:18.741Z,2.90
2019-01-08T22:55:46.360Z,3.30
2019-01-08T22:58:13.770Z,4.00
2019-01-08T23:01:00.894Z,3.67
2019-01-08T23:03:28.374Z,3.52
2019-01-08T23:05:55.784Z,3.15
2019-01-08T23:08:23.198Z,3.37
2019-01-08T23:10:50.620Z,3.12
2019-01-08T23:13:18.527Z,2.75
2019-01-08T23:15:46.403Z,2.85
2019-01-08T23:18:13.842Z,3.05
2019-01-08T23:20:41.267Z,3.77
2019-01-08T23:23:08.675Z,2.60
2019-01-08T23:25:36.107Z,3.15
2019-01-08T23:28:03.603Z,3.40
2019-01-08T23:30:31.086Z,3.25
2019-01-08T23:32:58.500Z,3.25
2019-01-08T23:35:25.900Z,3.00
2019-01-08T23:41:03.470Z,3.10
2019-01-08T23:43:30.867Z,3.60
2019-01-08T23:49:07.854Z,2.98
2019-01-08T23:51:35.340Z,2.75
2019-01-08T23:54:03.555Z,3.40
2019-01-08T23:56:32.842Z,3.22
2019-01-08T23:59:00.247Z,2.65
